AFL3107 USPP-LTCG
Flight info
| Callsign | AFL3107 |
|---|---|
| Flight time | 3h 51m |
| Altitude | 36000 |
| Route | ULPET1M ULPET W63 INGEN T765 UNUKO L93 NATBI T796 ORTIM L158 GUBOM DCT SONUM T789 DAFOS P135 KR G900 ER B145 SUDIR N166 TUDEK UR114 NIVAX |
| Aircraft | B738/M-SDE2E3FGHIRWXY/LB1 |
Departure
| Time | 2026-04-20 14:11 |
|---|---|
| Airport | Perm International Airport (USPP) |
Arrival
| Time | 2026-04-20 18:02 |
|---|---|
| Airport | Trabzon International Airport (LTCG) |
| Time | Latitude | Longitude | Altitude | Speed | Heading |
|---|---|---|---|---|---|
| 2026-04-20 13:45 | 57.91937 | 56.02145 | 396 ft | 0 kts | 316° |
| 2026-04-20 14:00 | 57.91933 | 56.02151 | 393 ft | 4 kts | 315° |
| 2026-04-20 14:00 | 57.91918 | 56.02187 | 391 ft | 4 kts | 296° |
| 2026-04-20 14:00 | 57.91911 | 56.02230 | 389 ft | 4 kts | 263° |
| 2026-04-20 14:00 | 57.91918 | 56.02264 | 392 ft | 1 kts | 225° |
| 2026-04-20 14:05 | 57.91916 | 56.02262 | 392 ft | 2 kts | 225° |
| 2026-04-20 14:05 | 57.91886 | 56.02205 | 394 ft | 9 kts | 225° |
| 2026-04-20 14:06 | 57.91833 | 56.02203 | 396 ft | 9 kts | 147° |
| 2026-04-20 14:06 | 57.91789 | 56.02278 | 390 ft | 8 kts | 136° |
| 2026-04-20 14:06 | 57.91748 | 56.02352 | 392 ft | 8 kts | 137° |
| 2026-04-20 14:06 | 57.91707 | 56.02424 | 396 ft | 8 kts | 136° |
| 2026-04-20 14:07 | 57.91666 | 56.02485 | 399 ft | 8 kts | 167° |
| 2026-04-20 14:07 | 57.91601 | 56.02420 | 399 ft | 16 kts | 224° |
| 2026-04-20 14:07 | 57.91499 | 56.02229 | 391 ft | 23 kts | 224° |
| 2026-04-20 14:07 | 57.91390 | 56.02017 | 395 ft | 22 kts | 225° |
| 2026-04-20 14:08 | 57.91284 | 56.01811 | 394 ft | 22 kts | 226° |
| 2026-04-20 14:08 | 57.91176 | 56.01606 | 395 ft | 24 kts | 225° |
| 2026-04-20 14:08 | 57.91059 | 56.01377 | 389 ft | 24 kts | 226° |
| 2026-04-20 14:08 | 57.90949 | 56.01165 | 395 ft | 23 kts | 225° |
| 2026-04-20 14:09 | 57.90821 | 56.00917 | 395 ft | 27 kts | 224° |
| 2026-04-20 14:09 | 57.90693 | 56.00670 | 391 ft | 26 kts | 225° |
| 2026-04-20 14:09 | 57.90574 | 56.00437 | 393 ft | 24 kts | 226° |
| 2026-04-20 14:09 | 57.90514 | 56.00229 | 391 ft | 15 kts | 250° |
| 2026-04-20 14:10 | 57.90472 | 56.00225 | 392 ft | 10 kts | 76° |
| 2026-04-20 14:10 | 57.90493 | 56.00279 | 391 ft | 0 kts | 47° |
| 2026-04-20 14:11 | 57.90597 | 56.00483 | 393 ft | 58 kts | 46° |
| 2026-04-20 14:11 | 57.91049 | 56.01353 | 395 ft | 128 kts | 46° |
| 2026-04-20 14:11 | 57.91809 | 56.02817 | 465 ft | 180 kts | 46° |
| 2026-04-20 14:11 | 57.92730 | 56.04511 | 1290 ft | 182 kts | 45° |
| 2026-04-20 14:12 | 57.93600 | 56.06203 | 2211 ft | 185 kts | 52° |
| 2026-04-20 14:12 | 57.94549 | 56.08087 | 2447 ft | 208 kts | 52° |
| 2026-04-20 14:12 | 57.95618 | 56.10044 | 2758 ft | 230 kts | 40° |
| 2026-04-20 14:12 | 57.97235 | 56.11048 | 3049 ft | 263 kts | 3° |
| 2026-04-20 14:13 | 57.99054 | 56.10191 | 3642 ft | 277 kts | 331° |
| 2026-04-20 14:13 | 58.00470 | 56.07812 | 4537 ft | 271 kts | 300° |
| 2026-04-20 14:13 | 58.01075 | 56.04556 | 5392 ft | 261 kts | 268° |
| 2026-04-20 14:13 | 58.00651 | 56.01322 | 6104 ft | 255 kts | 236° |
| 2026-04-20 14:14 | 57.99544 | 55.98705 | 6821 ft | 255 kts | 226° |
| 2026-04-20 14:14 | 57.98359 | 55.96217 | 7483 ft | 259 kts | 225° |
| 2026-04-20 14:14 | 57.97128 | 55.93682 | 8150 ft | 265 kts | 225° |
| 2026-04-20 14:14 | 57.95860 | 55.91088 | 8785 ft | 272 kts | 226° |
| 2026-04-20 14:15 | 57.94561 | 55.88426 | 9400 ft | 278 kts | 226° |
| 2026-04-20 14:15 | 57.93248 | 55.85726 | 10046 ft | 283 kts | 227° |
| 2026-04-20 14:15 | 57.91895 | 55.82935 | 10369 ft | 299 kts | 226° |
| 2026-04-20 14:15 | 57.90442 | 55.79941 | 10543 ft | 320 kts | 227° |
| 2026-04-20 14:16 | 57.88896 | 55.76748 | 10710 ft | 340 kts | 227° |
| 2026-04-20 14:16 | 57.87276 | 55.73397 | 10859 ft | 358 kts | 226° |
| 2026-04-20 14:16 | 57.85577 | 55.69880 | 11311 ft | 367 kts | 226° |
| 2026-04-20 14:16 | 57.83854 | 55.66324 | 11967 ft | 368 kts | 226° |
| 2026-04-20 14:17 | 57.82136 | 55.62779 | 12737 ft | 367 kts | 226° |
| 2026-04-20 14:17 | 57.80404 | 55.59211 | 13342 ft | 370 kts | 227° |
| 2026-04-20 14:17 | 57.78658 | 55.55613 | 13913 ft | 374 kts | 225° |
| 2026-04-20 14:17 | 57.76897 | 55.51997 | 14423 ft | 376 kts | 227° |
| 2026-04-20 14:18 | 57.75128 | 55.48370 | 14980 ft | 376 kts | 227° |
| 2026-04-20 14:18 | 57.73369 | 55.44766 | 15704 ft | 372 kts | 227° |
| 2026-04-20 14:18 | 57.71618 | 55.41185 | 16197 ft | 374 kts | 227° |
| 2026-04-20 14:18 | 57.69852 | 55.37579 | 16650 ft | 377 kts | 227° |
| 2026-04-20 14:19 | 57.68083 | 55.33977 | 17010 ft | 383 kts | 227° |
| 2026-04-20 14:19 | 57.66277 | 55.30303 | 17469 ft | 385 kts | 227° |
| 2026-04-20 14:19 | 57.64453 | 55.26598 | 17863 ft | 390 kts | 227° |
| 2026-04-20 14:19 | 57.62610 | 55.22861 | 18274 ft | 393 kts | 227° |
| 2026-04-20 14:20 | 57.60754 | 55.19103 | 18708 ft | 393 kts | 227° |
| 2026-04-20 14:20 | 57.58897 | 55.15349 | 19137 ft | 394 kts | 228° |
| 2026-04-20 14:20 | 57.57033 | 55.11586 | 19543 ft | 396 kts | 228° |
| 2026-04-20 14:20 | 57.55160 | 55.07812 | 19926 ft | 397 kts | 228° |
| 2026-04-20 14:21 | 57.53281 | 55.04029 | 20326 ft | 399 kts | 228° |
| 2026-04-20 14:21 | 57.51392 | 55.00236 | 20712 ft | 400 kts | 228° |
| 2026-04-20 14:21 | 57.49494 | 54.96429 | 21080 ft | 402 kts | 228° |
| 2026-04-20 14:21 | 57.47590 | 54.92614 | 21458 ft | 403 kts | 228° |
| 2026-04-20 14:22 | 57.45675 | 54.88784 | 21876 ft | 403 kts | 228° |
| 2026-04-20 14:22 | 57.43763 | 54.84971 | 22295 ft | 404 kts | 228° |
| 2026-04-20 14:22 | 57.41907 | 54.81045 | 22613 ft | 406 kts | 231° |
| 2026-04-20 14:22 | 57.40151 | 54.76941 | 22916 ft | 408 kts | 233° |
| 2026-04-20 14:23 | 57.38421 | 54.72763 | 23271 ft | 409 kts | 233° |
| 2026-04-20 14:23 | 57.36691 | 54.68570 | 23588 ft | 410 kts | 233° |
| 2026-04-20 14:23 | 57.34947 | 54.64377 | 23853 ft | 411 kts | 233° |
| 2026-04-20 14:23 | 57.33205 | 54.60232 | 24111 ft | 413 kts | 232° |
| 2026-04-20 14:24 | 57.31428 | 54.56034 | 24379 ft | 414 kts | 232° |
| 2026-04-20 14:24 | 57.29641 | 54.51836 | 24635 ft | 415 kts | 232° |
| 2026-04-20 14:24 | 57.27851 | 54.47640 | 24898 ft | 416 kts | 232° |
| 2026-04-20 14:24 | 57.26048 | 54.43424 | 25147 ft | 417 kts | 232° |
| 2026-04-20 14:25 | 57.24245 | 54.39213 | 25404 ft | 419 kts | 232° |
| 2026-04-20 14:25 | 57.22435 | 54.34992 | 25638 ft | 420 kts | 232° |
| 2026-04-20 14:25 | 57.20639 | 54.30812 | 25867 ft | 421 kts | 231° |
| 2026-04-20 14:25 | 57.18812 | 54.26574 | 26087 ft | 422 kts | 231° |
| 2026-04-20 14:26 | 57.16973 | 54.22339 | 26307 ft | 424 kts | 231° |
| 2026-04-20 14:26 | 57.15128 | 54.18103 | 26529 ft | 425 kts | 231° |
| 2026-04-20 14:26 | 57.13275 | 54.13852 | 26739 ft | 426 kts | 231° |
| 2026-04-20 14:26 | 57.11417 | 54.09595 | 26946 ft | 427 kts | 231° |
| 2026-04-20 14:27 | 57.09553 | 54.05329 | 27151 ft | 428 kts | 231° |
| 2026-04-20 14:27 | 57.07683 | 54.01059 | 27357 ft | 429 kts | 231° |
| 2026-04-20 14:27 | 57.05812 | 53.96792 | 27640 ft | 428 kts | 231° |
| 2026-04-20 14:27 | 57.03952 | 53.92529 | 27959 ft | 426 kts | 231° |
| 2026-04-20 14:28 | 57.02106 | 53.88280 | 28287 ft | 425 kts | 231° |
| 2026-04-20 14:28 | 57.00269 | 53.84051 | 28567 ft | 424 kts | 231° |
| 2026-04-20 14:28 | 56.98430 | 53.79825 | 28825 ft | 424 kts | 231° |
| 2026-04-20 14:28 | 56.96590 | 53.75605 | 29111 ft | 423 kts | 231° |
| 2026-04-20 14:29 | 56.94751 | 53.71396 | 29415 ft | 421 kts | 231° |
| 2026-04-20 14:29 | 56.92917 | 53.67209 | 29688 ft | 421 kts | 231° |
| 2026-04-20 14:29 | 56.91107 | 53.63083 | 29956 ft | 420 kts | 231° |
| 2026-04-20 14:29 | 56.89276 | 53.58916 | 30183 ft | 420 kts | 230° |
| 2026-04-20 14:30 | 56.87443 | 53.54749 | 30398 ft | 420 kts | 230° |
| 2026-04-20 14:30 | 56.85614 | 53.50602 | 30675 ft | 419 kts | 230° |
| 2026-04-20 14:30 | 56.83781 | 53.46454 | 31016 ft | 417 kts | 230° |
| 2026-04-20 14:30 | 56.81894 | 53.42451 | 31329 ft | 415 kts | 227° |
| 2026-04-20 14:31 | 56.79964 | 53.38626 | 31599 ft | 414 kts | 226° |
| 2026-04-20 14:31 | 56.77989 | 53.34794 | 31852 ft | 414 kts | 226° |
| 2026-04-20 14:31 | 56.76016 | 53.30974 | 32141 ft | 413 kts | 226° |
| 2026-04-20 14:31 | 56.74055 | 53.27161 | 32432 ft | 412 kts | 226° |
| 2026-04-20 14:32 | 56.72105 | 53.23354 | 32699 ft | 411 kts | 226° |
| 2026-04-20 14:32 | 56.70816 | 53.20833 | 32879 ft | 410 kts | 226° |
| 2026-04-20 14:32 | 56.68868 | 53.17019 | 33122 ft | 410 kts | 226° |
| 2026-04-20 14:32 | 56.66917 | 53.13207 | 33344 ft | 410 kts | 226° |
| 2026-04-20 14:33 | 56.64973 | 53.09415 | 33629 ft | 409 kts | 226° |
| 2026-04-20 14:33 | 56.63028 | 53.05648 | 33891 ft | 407 kts | 225° |
| 2026-04-20 14:33 | 56.61077 | 53.01917 | 34036 ft | 409 kts | 225° |
| 2026-04-20 14:33 | 56.59107 | 52.98173 | 34138 ft | 410 kts | 225° |
| 2026-04-20 14:34 | 56.57133 | 52.94425 | 34282 ft | 411 kts | 225° |
| 2026-04-20 14:34 | 56.55179 | 52.90716 | 34455 ft | 411 kts | 225° |
| 2026-04-20 14:34 | 56.53202 | 52.86965 | 34592 ft | 412 kts | 225° |
| 2026-04-20 14:34 | 56.51220 | 52.83208 | 34716 ft | 413 kts | 225° |
| 2026-04-20 14:35 | 56.47225 | 52.75648 | 34839 ft | 418 kts | 225° |
| 2026-04-20 14:35 | 56.45209 | 52.71836 | 34993 ft | 418 kts | 226° |
| 2026-04-20 14:35 | 56.43307 | 52.67854 | 35166 ft | 418 kts | 229° |
| 2026-04-20 14:36 | 56.41468 | 52.63786 | 35304 ft | 419 kts | 230° |
| 2026-04-20 14:36 | 56.39631 | 52.59694 | 35406 ft | 420 kts | 230° |
| 2026-04-20 14:36 | 56.37785 | 52.55607 | 35538 ft | 420 kts | 229° |
| 2026-04-20 14:36 | 56.35924 | 52.51521 | 35675 ft | 420 kts | 229° |
| 2026-04-20 14:37 | 56.31947 | 52.43903 | 35742 ft | 421 kts | 212° |
| 2026-04-20 14:37 | 56.29308 | 52.41634 | 35760 ft | 423 kts | 198° |
| 2026-04-20 14:37 | 56.26408 | 52.40667 | 35781 ft | 426 kts | 184° |
| 2026-04-20 14:38 | 56.23432 | 52.41043 | 35754 ft | 432 kts | 171° |
| 2026-04-20 14:38 | 56.20552 | 52.42691 | 35747 ft | 439 kts | 156° |
| 2026-04-20 14:38 | 56.15452 | 52.48892 | 35727 ft | 441 kts | 157° |
| 2026-04-20 14:39 | 56.12612 | 52.50692 | 35774 ft | 429 kts | 174° |
| 2026-04-20 14:39 | 56.09659 | 52.50888 | 35742 ft | 423 kts | 190° |
| 2026-04-20 14:39 | 56.06845 | 52.49667 | 35740 ft | 419 kts | 204° |
| 2026-04-20 14:39 | 56.04292 | 52.47179 | 35748 ft | 418 kts | 217° |
| 2026-04-20 14:40 | 56.02124 | 52.43727 | 35740 ft | 419 kts | 229° |
| 2026-04-20 14:40 | 56.00497 | 52.39400 | 35747 ft | 421 kts | 241° |
| 2026-04-20 14:40 | 55.97957 | 52.29977 | 35741 ft | 423 kts | 243° |
| 2026-04-20 14:41 | 55.95464 | 52.20425 | 35733 ft | 425 kts | 242° |
| 2026-04-20 14:41 | 55.92919 | 52.10887 | 35736 ft | 425 kts | 242° |
| 2026-04-20 14:42 | 55.90337 | 52.01370 | 35723 ft | 427 kts | 242° |
| 2026-04-20 14:42 | 55.87738 | 51.91867 | 35721 ft | 427 kts | 242° |
| 2026-04-20 14:43 | 55.85125 | 51.82347 | 35718 ft | 428 kts | 242° |
| 2026-04-20 14:43 | 55.82515 | 51.72874 | 35720 ft | 428 kts | 241° |
| 2026-04-20 14:44 | 55.79882 | 51.63351 | 35711 ft | 429 kts | 241° |
| 2026-04-20 14:44 | 55.77268 | 51.53937 | 35710 ft | 429 kts | 241° |
| 2026-04-20 14:45 | 55.74621 | 51.44439 | 35696 ft | 429 kts | 241° |
| 2026-04-20 14:45 | 55.72076 | 51.34826 | 35698 ft | 430 kts | 244° |
| 2026-04-20 14:46 | 55.69796 | 51.25082 | 35687 ft | 430 kts | 245° |
| 2026-04-20 14:46 | 55.67516 | 51.15254 | 35690 ft | 430 kts | 245° |
| 2026-04-20 14:47 | 55.65207 | 51.05457 | 35680 ft | 430 kts | 244° |
| 2026-04-20 14:48 | 55.61708 | 50.90794 | 35679 ft | 431 kts | 244° |
| 2026-04-20 14:48 | 55.59380 | 50.81105 | 35665 ft | 431 kts | 244° |
| 2026-04-20 14:49 | 55.57020 | 50.71327 | 35666 ft | 432 kts | 244° |
| 2026-04-20 14:49 | 55.54651 | 50.61554 | 35659 ft | 432 kts | 244° |
| 2026-04-20 14:50 | 55.52286 | 50.51837 | 35660 ft | 433 kts | 244° |
| 2026-04-20 14:50 | 55.49892 | 50.42047 | 35642 ft | 434 kts | 244° |
| 2026-04-20 14:51 | 55.47504 | 50.32321 | 35646 ft | 434 kts | 244° |
| 2026-04-20 14:51 | 55.45090 | 50.22532 | 35640 ft | 435 kts | 244° |
| 2026-04-20 14:52 | 55.42666 | 50.12743 | 35635 ft | 436 kts | 244° |
| 2026-04-20 14:52 | 55.40265 | 50.02932 | 35621 ft | 438 kts | 248° |
| 2026-04-20 14:53 | 55.39086 | 49.92374 | 35622 ft | 445 kts | 264° |
| 2026-04-20 14:53 | 55.39432 | 49.81502 | 35624 ft | 449 kts | 272° |
| 2026-04-20 14:54 | 55.40051 | 49.70554 | 35615 ft | 449 kts | 272° |
| 2026-04-20 14:54 | 55.40608 | 49.59597 | 35609 ft | 450 kts | 271° |
| 2026-04-20 14:55 | 55.41131 | 49.48593 | 35614 ft | 450 kts | 270° |
| 2026-04-20 14:55 | 55.40977 | 49.43139 | 35573 ft | 442 kts | 252° |
| 2026-04-20 14:55 | 55.39881 | 49.38149 | 35599 ft | 436 kts | 237° |
| 2026-04-20 14:55 | 55.38156 | 49.33880 | 35612 ft | 432 kts | 226° |
| 2026-04-20 14:56 | 55.35899 | 49.30426 | 35591 ft | 430 kts | 211° |
| 2026-04-20 14:56 | 55.30712 | 49.25175 | 35594 ft | 430 kts | 208° |
| 2026-04-20 14:57 | 55.25472 | 49.20023 | 35581 ft | 432 kts | 209° |
| 2026-04-20 14:57 | 55.20281 | 49.14795 | 35583 ft | 433 kts | 210° |
| 2026-04-20 14:58 | 55.15047 | 49.09510 | 35574 ft | 435 kts | 210° |
| 2026-04-20 14:58 | 55.09780 | 49.04220 | 35572 ft | 436 kts | 209° |
| 2026-04-20 14:59 | 55.04528 | 48.98962 | 35562 ft | 438 kts | 209° |
| 2026-04-20 14:59 | 54.99230 | 48.93671 | 35572 ft | 438 kts | 210° |
| 2026-04-20 15:00 | 54.93930 | 48.88393 | 35558 ft | 438 kts | 210° |
| 2026-04-20 15:00 | 54.88652 | 48.83151 | 35566 ft | 438 kts | 210° |
| 2026-04-20 15:01 | 54.83349 | 48.77901 | 35566 ft | 438 kts | 209° |
| 2026-04-20 15:01 | 54.78067 | 48.72701 | 35553 ft | 439 kts | 209° |
| 2026-04-20 15:02 | 54.72752 | 48.67490 | 35566 ft | 438 kts | 209° |
| 2026-04-20 15:02 | 54.67431 | 48.62285 | 35562 ft | 438 kts | 209° |
| 2026-04-20 15:03 | 54.62153 | 48.57136 | 35558 ft | 438 kts | 209° |
| 2026-04-20 15:03 | 54.56849 | 48.51976 | 35565 ft | 437 kts | 209° |
| 2026-04-20 15:04 | 54.51549 | 48.46836 | 35577 ft | 436 kts | 209° |
| 2026-04-20 15:04 | 54.46248 | 48.41710 | 35586 ft | 436 kts | 209° |
| 2026-04-20 15:05 | 54.40958 | 48.36610 | 35602 ft | 435 kts | 209° |
| 2026-04-20 15:05 | 54.35693 | 48.31549 | 35608 ft | 435 kts | 209° |
| 2026-04-20 15:06 | 54.30409 | 48.26482 | 35606 ft | 435 kts | 209° |
| 2026-04-20 15:06 | 54.25087 | 48.21502 | 35607 ft | 435 kts | 206° |
| 2026-04-20 15:07 | 54.19568 | 48.17243 | 35613 ft | 435 kts | 204° |
| 2026-04-20 15:07 | 54.14041 | 48.13146 | 35591 ft | 436 kts | 204° |
| 2026-04-20 15:08 | 54.08464 | 48.08954 | 35597 ft | 437 kts | 204° |
| 2026-04-20 15:08 | 54.02895 | 48.04736 | 35598 ft | 438 kts | 204° |
| 2026-04-20 15:09 | 53.97352 | 48.00542 | 35597 ft | 438 kts | 204° |
| 2026-04-20 15:09 | 53.91799 | 47.96354 | 35603 ft | 438 kts | 205° |
| 2026-04-20 15:10 | 53.86218 | 47.92157 | 35613 ft | 438 kts | 204° |
| 2026-04-20 15:10 | 53.80505 | 47.88491 | 35607 ft | 440 kts | 194° |
| 2026-04-20 15:11 | 53.74520 | 47.86210 | 35619 ft | 440 kts | 194° |
| 2026-04-20 15:11 | 53.68631 | 47.83617 | 35616 ft | 439 kts | 201° |
| 2026-04-20 15:12 | 53.62949 | 47.79790 | 35625 ft | 439 kts | 203° |
| 2026-04-20 15:12 | 53.57310 | 47.75936 | 35626 ft | 439 kts | 202° |
| 2026-04-20 15:13 | 53.51628 | 47.72165 | 35621 ft | 438 kts | 202° |
| 2026-04-20 15:13 | 53.46039 | 47.68235 | 35628 ft | 437 kts | 208° |
| 2026-04-20 15:14 | 53.40704 | 47.63382 | 35638 ft | 436 kts | 209° |
| 2026-04-20 15:14 | 53.35392 | 47.58472 | 35636 ft | 435 kts | 209° |
| 2026-04-20 15:15 | 53.30059 | 47.53645 | 35639 ft | 435 kts | 208° |
| 2026-04-20 15:15 | 53.24717 | 47.48861 | 35649 ft | 435 kts | 208° |
| 2026-04-20 15:16 | 53.19408 | 47.44118 | 35640 ft | 435 kts | 208° |
| 2026-04-20 15:16 | 53.14064 | 47.39358 | 35655 ft | 434 kts | 208° |
| 2026-04-20 15:17 | 53.08744 | 47.34634 | 35652 ft | 435 kts | 208° |
| 2026-04-20 15:17 | 53.03400 | 47.29899 | 35656 ft | 435 kts | 208° |
| 2026-04-20 15:18 | 52.98088 | 47.25205 | 35653 ft | 434 kts | 208° |
| 2026-04-20 15:18 | 52.92751 | 47.20501 | 35664 ft | 434 kts | 208° |
| 2026-04-20 15:19 | 52.88300 | 47.16588 | 35671 ft | 434 kts | 208° |
| 2026-04-20 15:19 | 52.82984 | 47.11926 | 35671 ft | 434 kts | 208° |
| 2026-04-20 15:20 | 52.77626 | 47.07246 | 35677 ft | 434 kts | 208° |
| 2026-04-20 15:20 | 52.72280 | 47.02591 | 35677 ft | 434 kts | 208° |
| 2026-04-20 15:21 | 52.66964 | 46.97973 | 35693 ft | 434 kts | 208° |
| 2026-04-20 15:21 | 52.61602 | 46.93327 | 35686 ft | 434 kts | 208° |
| 2026-04-20 15:22 | 52.56241 | 46.88692 | 35694 ft | 435 kts | 208° |
| 2026-04-20 15:22 | 52.50907 | 46.84096 | 35693 ft | 435 kts | 208° |
| 2026-04-20 15:23 | 52.45533 | 46.79479 | 35682 ft | 434 kts | 208° |
| 2026-04-20 15:23 | 52.40202 | 46.74913 | 35693 ft | 434 kts | 208° |
| 2026-04-20 15:24 | 52.34837 | 46.70328 | 35705 ft | 433 kts | 208° |
| 2026-04-20 15:24 | 52.29484 | 46.65764 | 35703 ft | 433 kts | 208° |
| 2026-04-20 15:25 | 52.24166 | 46.61241 | 35710 ft | 432 kts | 208° |
| 2026-04-20 15:25 | 52.18828 | 46.56713 | 35730 ft | 432 kts | 208° |
| 2026-04-20 15:26 | 52.13521 | 46.52230 | 35718 ft | 431 kts | 208° |
| 2026-04-20 15:26 | 52.08179 | 46.47729 | 35714 ft | 431 kts | 208° |
| 2026-04-20 15:27 | 52.02846 | 46.43244 | 35725 ft | 431 kts | 208° |
| 2026-04-20 15:27 | 51.97544 | 46.38802 | 35732 ft | 431 kts | 208° |
| 2026-04-20 15:28 | 51.92214 | 46.34349 | 35719 ft | 431 kts | 208° |
| 2026-04-20 15:28 | 51.86868 | 46.29890 | 35736 ft | 431 kts | 208° |
| 2026-04-20 15:29 | 51.81564 | 46.25479 | 35747 ft | 431 kts | 208° |
| 2026-04-20 15:29 | 51.76226 | 46.21055 | 35745 ft | 431 kts | 208° |
| 2026-04-20 15:30 | 51.70880 | 46.16635 | 35760 ft | 431 kts | 208° |
| 2026-04-20 15:30 | 51.65532 | 46.12223 | 35748 ft | 431 kts | 208° |
| 2026-04-20 15:31 | 51.60225 | 46.07853 | 35753 ft | 431 kts | 208° |
| 2026-04-20 15:31 | 51.54856 | 46.03472 | 35748 ft | 431 kts | 207° |
| 2026-04-20 15:32 | 51.49435 | 45.99317 | 35753 ft | 432 kts | 206° |
| 2026-04-20 15:32 | 51.44024 | 45.95242 | 35761 ft | 432 kts | 206° |
| 2026-04-20 15:33 | 51.38591 | 45.91133 | 35756 ft | 431 kts | 206° |
| 2026-04-20 15:33 | 51.33160 | 45.87019 | 35759 ft | 431 kts | 206° |
| 2026-04-20 15:34 | 51.27742 | 45.82921 | 35769 ft | 430 kts | 206° |
| 2026-04-20 15:34 | 51.22328 | 45.78837 | 35783 ft | 430 kts | 206° |
| 2026-04-20 15:35 | 51.16947 | 45.74788 | 35775 ft | 430 kts | 206° |
| 2026-04-20 15:35 | 51.11536 | 45.70727 | 35783 ft | 429 kts | 206° |
| 2026-04-20 15:36 | 51.06126 | 45.66677 | 35784 ft | 429 kts | 206° |
| 2026-04-20 15:36 | 51.00978 | 45.61923 | 35783 ft | 427 kts | 219° |
| 2026-04-20 15:37 | 50.96367 | 45.56049 | 35793 ft | 428 kts | 219° |
| 2026-04-20 15:37 | 50.91686 | 45.50182 | 35794 ft | 428 kts | 218° |
| 2026-04-20 15:38 | 50.86987 | 45.44358 | 35803 ft | 428 kts | 218° |
| 2026-04-20 15:38 | 50.82211 | 45.38693 | 35787 ft | 428 kts | 217° |
| 2026-04-20 15:39 | 50.77387 | 45.33154 | 35814 ft | 428 kts | 217° |
| 2026-04-20 15:39 | 50.72595 | 45.27654 | 35806 ft | 429 kts | 217° |
| 2026-04-20 15:40 | 50.67769 | 45.22100 | 35815 ft | 428 kts | 217° |
| 2026-04-20 15:40 | 50.62953 | 45.16559 | 35809 ft | 428 kts | 217° |
| 2026-04-20 15:41 | 50.58138 | 45.11032 | 35818 ft | 428 kts | 217° |
| 2026-04-20 15:41 | 50.53315 | 45.05509 | 35827 ft | 428 kts | 217° |
| 2026-04-20 15:42 | 50.48496 | 45.00007 | 35826 ft | 428 kts | 217° |
| 2026-04-20 15:42 | 50.43696 | 44.94539 | 35831 ft | 428 kts | 217° |
| 2026-04-20 15:43 | 50.38869 | 44.89056 | 35827 ft | 428 kts | 217° |
| 2026-04-20 15:43 | 50.34044 | 44.83590 | 35835 ft | 428 kts | 217° |
| 2026-04-20 15:44 | 50.29248 | 44.78169 | 35840 ft | 427 kts | 217° |
| 2026-04-20 15:44 | 50.24420 | 44.72725 | 35842 ft | 427 kts | 217° |
| 2026-04-20 15:45 | 50.19575 | 44.67278 | 35843 ft | 427 kts | 217° |
| 2026-04-20 15:45 | 50.14773 | 44.61892 | 35848 ft | 427 kts | 217° |
| 2026-04-20 15:46 | 50.09939 | 44.56484 | 35820 ft | 427 kts | 217° |
| 2026-04-20 15:46 | 50.05122 | 44.51108 | 35838 ft | 426 kts | 217° |
| 2026-04-20 15:47 | 50.00296 | 44.45736 | 35859 ft | 426 kts | 217° |
| 2026-04-20 15:47 | 49.95473 | 44.40381 | 35862 ft | 426 kts | 217° |
| 2026-04-20 15:48 | 49.90651 | 44.35040 | 35855 ft | 425 kts | 217° |
| 2026-04-20 15:48 | 49.85857 | 44.29744 | 35857 ft | 425 kts | 217° |
| 2026-04-20 15:49 | 49.81033 | 44.24427 | 35856 ft | 425 kts | 217° |
| 2026-04-20 15:49 | 49.76202 | 44.19116 | 35865 ft | 425 kts | 217° |
| 2026-04-20 15:50 | 49.71403 | 44.13853 | 35874 ft | 424 kts | 217° |
| 2026-04-20 15:50 | 49.66579 | 44.08576 | 35871 ft | 424 kts | 217° |
| 2026-04-20 15:51 | 49.61750 | 44.03305 | 35875 ft | 424 kts | 217° |
| 2026-04-20 15:51 | 49.56951 | 43.98079 | 35869 ft | 424 kts | 217° |
| 2026-04-20 15:52 | 49.52124 | 43.92837 | 35885 ft | 424 kts | 217° |
| 2026-04-20 15:52 | 49.47139 | 43.87919 | 35886 ft | 425 kts | 213° |
| 2026-04-20 15:53 | 49.39586 | 43.80860 | 35883 ft | 425 kts | 214° |
| 2026-04-20 15:53 | 49.34531 | 43.76095 | 35886 ft | 424 kts | 214° |
| 2026-04-20 15:54 | 49.29537 | 43.71380 | 35897 ft | 424 kts | 214° |
| 2026-04-20 15:54 | 49.24574 | 43.66515 | 35891 ft | 422 kts | 219° |
| 2026-04-20 15:55 | 49.19961 | 43.60950 | 35896 ft | 421 kts | 220° |
| 2026-04-20 15:55 | 49.15426 | 43.55368 | 35900 ft | 420 kts | 220° |
| 2026-04-20 15:56 | 49.10839 | 43.49791 | 35904 ft | 420 kts | 220° |
| 2026-04-20 15:56 | 49.06263 | 43.44282 | 35906 ft | 420 kts | 220° |
| 2026-04-20 15:57 | 49.01662 | 43.38769 | 35914 ft | 420 kts | 220° |
| 2026-04-20 15:57 | 48.97083 | 43.33295 | 35915 ft | 420 kts | 220° |
| 2026-04-20 15:58 | 48.92475 | 43.27800 | 35917 ft | 420 kts | 220° |
| 2026-04-20 15:58 | 48.87874 | 43.22325 | 35917 ft | 420 kts | 220° |
| 2026-04-20 15:59 | 48.83259 | 43.16846 | 35924 ft | 420 kts | 220° |
| 2026-04-20 15:59 | 48.78641 | 43.11377 | 35922 ft | 420 kts | 220° |
| 2026-04-20 16:00 | 48.74057 | 43.05961 | 35934 ft | 420 kts | 220° |
| 2026-04-20 16:00 | 48.69438 | 43.00517 | 35936 ft | 421 kts | 220° |
| 2026-04-20 16:01 | 48.64816 | 42.95081 | 35935 ft | 421 kts | 220° |
| 2026-04-20 16:01 | 48.60190 | 42.89652 | 35924 ft | 421 kts | 220° |
| 2026-04-20 16:02 | 48.55551 | 42.84232 | 35931 ft | 420 kts | 220° |
| 2026-04-20 16:02 | 48.50935 | 42.78883 | 35944 ft | 420 kts | 219° |
| 2026-04-20 16:03 | 48.46289 | 42.73512 | 35955 ft | 420 kts | 219° |
| 2026-04-20 16:03 | 48.41637 | 42.68142 | 35947 ft | 420 kts | 219° |
| 2026-04-20 16:04 | 48.37015 | 42.62818 | 35945 ft | 421 kts | 220° |
| 2026-04-20 16:04 | 48.32359 | 42.57466 | 35958 ft | 420 kts | 219° |
| 2026-04-20 16:05 | 48.27708 | 42.52131 | 35955 ft | 421 kts | 219° |
| 2026-04-20 16:05 | 48.23078 | 42.46834 | 35956 ft | 421 kts | 219° |
| 2026-04-20 16:06 | 48.18416 | 42.41532 | 35950 ft | 421 kts | 219° |
| 2026-04-20 16:06 | 48.14525 | 42.37121 | 35957 ft | 421 kts | 219° |
| 2026-04-20 16:07 | 48.09843 | 42.31822 | 35955 ft | 422 kts | 219° |
| 2026-04-20 16:07 | 48.05152 | 42.26523 | 35956 ft | 422 kts | 219° |
| 2026-04-20 16:08 | 48.00458 | 42.21232 | 35961 ft | 422 kts | 219° |
| 2026-04-20 16:08 | 47.95778 | 42.15969 | 35961 ft | 423 kts | 219° |
| 2026-04-20 16:09 | 47.91068 | 42.10684 | 35966 ft | 424 kts | 219° |
| 2026-04-20 16:09 | 47.86377 | 42.05432 | 35966 ft | 424 kts | 219° |
| 2026-04-20 16:10 | 47.81638 | 42.00138 | 35966 ft | 425 kts | 219° |
| 2026-04-20 16:10 | 47.76916 | 41.94880 | 35950 ft | 426 kts | 219° |
| 2026-04-20 16:11 | 47.72155 | 41.89590 | 35961 ft | 425 kts | 219° |
| 2026-04-20 16:11 | 47.67453 | 41.84375 | 35966 ft | 424 kts | 219° |
| 2026-04-20 16:12 | 47.62717 | 41.79134 | 35958 ft | 424 kts | 219° |
| 2026-04-20 16:12 | 47.57985 | 41.73908 | 35969 ft | 423 kts | 219° |
| 2026-04-20 16:13 | 47.53287 | 41.68730 | 35971 ft | 423 kts | 219° |
| 2026-04-20 16:13 | 47.48567 | 41.63540 | 35972 ft | 423 kts | 219° |
| 2026-04-20 16:14 | 47.43837 | 41.58354 | 35962 ft | 422 kts | 219° |
| 2026-04-20 16:14 | 47.39110 | 41.53181 | 35972 ft | 423 kts | 219° |
| 2026-04-20 16:15 | 47.34375 | 41.48007 | 35978 ft | 423 kts | 219° |
| 2026-04-20 16:15 | 47.29661 | 41.42867 | 35978 ft | 424 kts | 219° |
| 2026-04-20 16:16 | 47.24903 | 41.37690 | 35974 ft | 425 kts | 219° |
| 2026-04-20 16:16 | 47.20124 | 41.32503 | 35983 ft | 426 kts | 219° |
| 2026-04-20 16:17 | 47.15371 | 41.27356 | 35981 ft | 427 kts | 219° |
| 2026-04-20 16:17 | 47.10573 | 41.22171 | 35988 ft | 428 kts | 219° |
| 2026-04-20 16:18 | 47.05772 | 41.16996 | 35974 ft | 428 kts | 219° |
| 2026-04-20 16:18 | 47.00982 | 41.11844 | 35982 ft | 429 kts | 219° |
| 2026-04-20 16:19 | 46.96157 | 41.06667 | 35967 ft | 429 kts | 219° |
| 2026-04-20 16:19 | 46.91369 | 41.01540 | 35981 ft | 429 kts | 219° |
| 2026-04-20 16:20 | 46.86548 | 40.96387 | 35988 ft | 429 kts | 219° |
| 2026-04-20 16:20 | 46.81721 | 40.91240 | 35995 ft | 428 kts | 219° |
| 2026-04-20 16:21 | 46.76940 | 40.86114 | 35997 ft | 428 kts | 219° |
| 2026-04-20 16:21 | 46.72176 | 40.80874 | 36004 ft | 428 kts | 220° |
| 2026-04-20 16:22 | 46.67411 | 40.75640 | 35998 ft | 428 kts | 220° |
| 2026-04-20 16:22 | 46.62668 | 40.70456 | 36006 ft | 428 kts | 220° |
| 2026-04-20 16:23 | 46.57859 | 40.65303 | 36002 ft | 430 kts | 216° |
| 2026-04-20 16:23 | 46.52691 | 40.60971 | 36003 ft | 432 kts | 212° |
| 2026-04-20 16:24 | 46.47427 | 40.56741 | 36004 ft | 431 kts | 213° |
| 2026-04-20 16:24 | 46.42202 | 40.52456 | 36012 ft | 431 kts | 213° |
| 2026-04-20 16:25 | 46.36972 | 40.48148 | 36011 ft | 432 kts | 213° |
| 2026-04-20 16:25 | 46.31370 | 40.44972 | 36002 ft | 440 kts | 199° |
| 2026-04-20 16:26 | 46.25411 | 40.42790 | 36010 ft | 440 kts | 198° |
| 2026-04-20 16:26 | 46.19462 | 40.40598 | 36020 ft | 441 kts | 199° |
| 2026-04-20 16:27 | 46.13553 | 40.38379 | 36016 ft | 441 kts | 199° |
| 2026-04-20 16:27 | 46.07604 | 40.36130 | 36005 ft | 441 kts | 199° |
| 2026-04-20 16:28 | 46.01653 | 40.33886 | 36017 ft | 442 kts | 199° |
| 2026-04-20 16:28 | 45.95736 | 40.31660 | 36017 ft | 442 kts | 199° |
| 2026-04-20 16:29 | 45.89767 | 40.29420 | 36004 ft | 442 kts | 198° |
| 2026-04-20 16:29 | 45.83807 | 40.27188 | 36016 ft | 441 kts | 198° |
| 2026-04-20 16:30 | 45.77902 | 40.24980 | 36020 ft | 440 kts | 199° |
| 2026-04-20 16:30 | 45.72286 | 40.21704 | 36032 ft | 434 kts | 210° |
| 2026-04-20 16:31 | 45.66880 | 40.17849 | 36026 ft | 433 kts | 210° |
| 2026-04-20 16:31 | 45.61464 | 40.14047 | 36022 ft | 433 kts | 209° |
| 2026-04-20 16:32 | 45.56074 | 40.10311 | 36025 ft | 433 kts | 209° |
| 2026-04-20 16:32 | 45.50643 | 40.06559 | 36025 ft | 433 kts | 209° |
| 2026-04-20 16:33 | 45.45194 | 40.02837 | 36009 ft | 435 kts | 206° |
| 2026-04-20 16:33 | 45.39301 | 40.00677 | 36021 ft | 443 kts | 190° |
| 2026-04-20 16:34 | 45.33202 | 39.99729 | 36024 ft | 444 kts | 190° |
| 2026-04-20 16:34 | 45.27048 | 39.98767 | 36024 ft | 444 kts | 190° |
| 2026-04-20 16:35 | 45.20893 | 39.97758 | 36020 ft | 445 kts | 190° |
| 2026-04-20 16:35 | 45.14735 | 39.96731 | 36029 ft | 446 kts | 190° |
| 2026-04-20 16:36 | 45.08583 | 39.95707 | 36025 ft | 446 kts | 190° |
| 2026-04-20 16:36 | 45.02415 | 39.94684 | 36027 ft | 446 kts | 190° |
| 2026-04-20 16:37 | 44.96236 | 39.93662 | 36023 ft | 446 kts | 190° |
| 2026-04-20 16:37 | 44.90070 | 39.92644 | 36035 ft | 446 kts | 190° |
| 2026-04-20 16:38 | 44.83938 | 39.91639 | 36030 ft | 446 kts | 190° |
| 2026-04-20 16:38 | 44.77765 | 39.90631 | 36030 ft | 446 kts | 190° |
| 2026-04-20 16:39 | 44.71601 | 39.89625 | 36040 ft | 445 kts | 190° |
| 2026-04-20 16:39 | 44.65441 | 39.88621 | 36035 ft | 445 kts | 190° |
| 2026-04-20 16:40 | 44.59312 | 39.87625 | 36039 ft | 445 kts | 190° |
| 2026-04-20 16:40 | 44.53158 | 39.86626 | 36025 ft | 445 kts | 190° |
| 2026-04-20 16:41 | 44.46987 | 39.85627 | 36044 ft | 445 kts | 190° |
| 2026-04-20 16:41 | 44.40861 | 39.84637 | 36036 ft | 445 kts | 190° |
| 2026-04-20 16:42 | 44.34699 | 39.83642 | 36048 ft | 445 kts | 190° |
| 2026-04-20 16:42 | 44.28541 | 39.82642 | 36037 ft | 445 kts | 190° |
| 2026-04-20 16:43 | 44.22379 | 39.81641 | 36046 ft | 445 kts | 190° |
| 2026-04-20 16:43 | 44.16258 | 39.80650 | 36053 ft | 445 kts | 189° |
| 2026-04-20 16:44 | 44.10088 | 39.79654 | 36049 ft | 445 kts | 189° |
| 2026-04-20 16:44 | 44.03940 | 39.78663 | 36053 ft | 445 kts | 189° |
| 2026-04-20 16:45 | 43.97823 | 39.77679 | 36053 ft | 446 kts | 189° |
| 2026-04-20 16:45 | 43.91661 | 39.76692 | 36062 ft | 446 kts | 189° |
| 2026-04-20 16:46 | 43.88601 | 39.76208 | 36039 ft | 433 kts | 189° |
| 2026-04-20 16:46 | 43.85662 | 39.75747 | 36017 ft | 418 kts | 189° |
| 2026-04-20 16:46 | 43.82813 | 39.75301 | 36018 ft | 403 kts | 189° |
| 2026-04-20 16:46 | 43.80041 | 39.74862 | 36043 ft | 399 kts | 189° |
| 2026-04-20 16:47 | 43.74549 | 39.73986 | 36051 ft | 399 kts | 189° |
| 2026-04-20 16:47 | 43.69019 | 39.73109 | 36073 ft | 400 kts | 189° |
| 2026-04-20 16:48 | 43.63516 | 39.72241 | 36066 ft | 402 kts | 189° |
| 2026-04-20 16:48 | 43.57938 | 39.71363 | 36052 ft | 403 kts | 189° |
| 2026-04-20 16:49 | 43.52522 | 39.69663 | 36057 ft | 396 kts | 212° |
| 2026-04-20 16:49 | 43.50296 | 39.67471 | 36044 ft | 392 kts | 226° |
| 2026-04-20 16:49 | 43.48606 | 39.64613 | 36055 ft | 390 kts | 240° |
| 2026-04-20 16:50 | 43.47507 | 39.61210 | 36045 ft | 389 kts | 255° |
| 2026-04-20 16:50 | 43.47121 | 39.57530 | 36056 ft | 390 kts | 270° |
| 2026-04-20 16:50 | 43.47490 | 39.53813 | 36046 ft | 392 kts | 286° |
| 2026-04-20 16:50 | 43.48576 | 39.50417 | 36048 ft | 395 kts | 301° |
| 2026-04-20 16:51 | 43.50347 | 39.47491 | 36061 ft | 400 kts | 317° |
| 2026-04-20 16:51 | 43.52673 | 39.45343 | 36058 ft | 406 kts | 333° |
| 2026-04-20 16:51 | 43.55359 | 39.44093 | 36059 ft | 412 kts | 347° |
| 2026-04-20 16:51 | 43.58236 | 39.43887 | 36058 ft | 417 kts | 2° |
| 2026-04-20 16:52 | 43.64043 | 39.44781 | 36071 ft | 421 kts | 4° |
| 2026-04-20 16:52 | 43.69850 | 39.45732 | 36053 ft | 424 kts | 3° |
| 2026-04-20 16:53 | 43.75725 | 39.46645 | 36043 ft | 426 kts | 9° |
| 2026-04-20 16:53 | 43.78493 | 39.48119 | 36065 ft | 430 kts | 31° |
| 2026-04-20 16:53 | 43.80801 | 39.50774 | 36049 ft | 434 kts | 49° |
| 2026-04-20 16:54 | 43.81971 | 39.53016 | 36064 ft | 434 kts | 60° |
| 2026-04-20 16:54 | 43.83091 | 39.56889 | 36046 ft | 434 kts | 79° |
| 2026-04-20 16:54 | 43.83321 | 39.61028 | 36064 ft | 431 kts | 97° |
| 2026-04-20 16:54 | 43.82642 | 39.65049 | 36053 ft | 427 kts | 116° |
| 2026-04-20 16:55 | 43.81139 | 39.68553 | 36058 ft | 421 kts | 134° |
| 2026-04-20 16:55 | 43.79018 | 39.71212 | 36061 ft | 414 kts | 151° |
| 2026-04-20 16:55 | 43.76449 | 39.72916 | 36064 ft | 407 kts | 166° |
| 2026-04-20 16:55 | 43.73691 | 39.73669 | 36038 ft | 402 kts | 182° |
| 2026-04-20 16:56 | 43.68159 | 39.73017 | 36057 ft | 399 kts | 190° |
| 2026-04-20 16:56 | 43.62624 | 39.72062 | 36057 ft | 402 kts | 189° |
| 2026-04-20 16:57 | 43.57050 | 39.71208 | 36054 ft | 404 kts | 189° |
| 2026-04-20 16:57 | 43.51761 | 39.69111 | 36074 ft | 394 kts | 217° |
| 2026-04-20 16:58 | 43.49742 | 39.66665 | 36037 ft | 392 kts | 232° |
| 2026-04-20 16:58 | 43.48238 | 39.63507 | 36047 ft | 390 kts | 246° |
| 2026-04-20 16:58 | 43.47411 | 39.59964 | 36049 ft | 389 kts | 261° |
| 2026-04-20 16:58 | 43.47319 | 39.56283 | 36058 ft | 391 kts | 276° |
| 2026-04-20 16:59 | 43.47989 | 39.52648 | 36042 ft | 393 kts | 292° |
| 2026-04-20 16:59 | 43.49389 | 39.49401 | 36064 ft | 397 kts | 308° |
| 2026-04-20 16:59 | 43.51427 | 39.46799 | 36064 ft | 402 kts | 324° |
| 2026-04-20 16:59 | 43.53916 | 39.45094 | 36062 ft | 408 kts | 339° |
| 2026-04-20 17:00 | 43.59605 | 39.44521 | 36090 ft | 417 kts | 3° |
| 2026-04-20 17:00 | 43.62501 | 39.44983 | 36054 ft | 419 kts | 4° |
| 2026-04-20 17:01 | 43.68284 | 39.45956 | 36059 ft | 421 kts | 4° |
| 2026-04-20 17:01 | 43.74145 | 39.46827 | 36057 ft | 423 kts | 3° |
| 2026-04-20 17:01 | 43.77032 | 39.47677 | 36027 ft | 428 kts | 22° |
| 2026-04-20 17:02 | 43.79536 | 39.49799 | 36077 ft | 431 kts | 40° |
| 2026-04-20 17:02 | 43.81499 | 39.52933 | 36059 ft | 433 kts | 59° |
| 2026-04-20 17:02 | 43.82703 | 39.56736 | 36058 ft | 433 kts | 77° |
| 2026-04-20 17:02 | 43.83021 | 39.60858 | 36065 ft | 431 kts | 96° |
| 2026-04-20 17:03 | 43.82418 | 39.64888 | 36064 ft | 427 kts | 114° |
| 2026-04-20 17:03 | 43.80972 | 39.68432 | 36058 ft | 422 kts | 133° |
| 2026-04-20 17:03 | 43.78851 | 39.71169 | 36069 ft | 415 kts | 150° |
| 2026-04-20 17:03 | 43.76283 | 39.72901 | 36078 ft | 408 kts | 166° |
| 2026-04-20 17:04 | 43.73518 | 39.73653 | 36046 ft | 403 kts | 182° |
| 2026-04-20 17:04 | 43.67955 | 39.72993 | 36063 ft | 401 kts | 190° |
| 2026-04-20 17:05 | 43.62426 | 39.72032 | 36053 ft | 404 kts | 189° |
| 2026-04-20 17:05 | 43.56814 | 39.71172 | 36047 ft | 405 kts | 189° |
| 2026-04-20 17:05 | 43.54060 | 39.70600 | 36032 ft | 402 kts | 200° |
| 2026-04-20 17:06 | 43.51573 | 39.68936 | 36072 ft | 395 kts | 218° |
| 2026-04-20 17:06 | 43.49578 | 39.66372 | 36047 ft | 392 kts | 233° |
| 2026-04-20 17:06 | 43.48163 | 39.63183 | 36055 ft | 390 kts | 248° |
| 2026-04-20 17:06 | 43.47426 | 39.59610 | 36047 ft | 389 kts | 263° |
| 2026-04-20 17:07 | 43.47435 | 39.55883 | 36056 ft | 390 kts | 278° |
| 2026-04-20 17:07 | 43.48211 | 39.52301 | 36047 ft | 393 kts | 295° |
| 2026-04-20 17:07 | 43.49691 | 39.49170 | 36056 ft | 396 kts | 310° |
| 2026-04-20 17:07 | 43.51796 | 39.46699 | 36058 ft | 401 kts | 327° |
| 2026-04-20 17:08 | 43.54351 | 39.45121 | 36068 ft | 406 kts | 341° |
| 2026-04-20 17:08 | 43.57160 | 39.44511 | 36042 ft | 412 kts | 359° |
| 2026-04-20 17:08 | 43.60034 | 39.44806 | 36084 ft | 414 kts | 4° |
| 2026-04-20 17:09 | 43.65764 | 39.45769 | 36062 ft | 417 kts | 4° |
| 2026-04-20 17:09 | 43.71551 | 39.46671 | 36054 ft | 419 kts | 3° |
| 2026-04-20 17:10 | 43.77264 | 39.48085 | 36033 ft | 425 kts | 25° |
| 2026-04-20 17:10 | 43.79719 | 39.50372 | 36068 ft | 428 kts | 43° |
| 2026-04-20 17:10 | 43.81569 | 39.53599 | 36064 ft | 430 kts | 61° |
| 2026-04-20 17:10 | 43.82649 | 39.57462 | 36054 ft | 431 kts | 80° |
| 2026-04-20 17:11 | 43.82827 | 39.61577 | 36066 ft | 428 kts | 98° |
| 2026-04-20 17:11 | 43.82090 | 39.65544 | 36067 ft | 424 kts | 117° |
| 2026-04-20 17:11 | 43.80552 | 39.68929 | 36062 ft | 419 kts | 135° |
| 2026-04-20 17:11 | 43.78347 | 39.71519 | 36059 ft | 413 kts | 153° |
| 2026-04-20 17:12 | 43.75734 | 39.73088 | 36081 ft | 407 kts | 168° |
| 2026-04-20 17:12 | 43.72951 | 39.73655 | 36047 ft | 401 kts | 185° |
| 2026-04-20 17:12 | 43.70179 | 39.73361 | 36075 ft | 400 kts | 189° |
| 2026-04-20 17:13 | 43.64673 | 39.72409 | 36059 ft | 402 kts | 190° |
| 2026-04-20 17:13 | 43.59083 | 39.71511 | 36046 ft | 404 kts | 189° |
| 2026-04-20 17:14 | 43.53565 | 39.70376 | 36029 ft | 400 kts | 204° |
| 2026-04-20 17:14 | 43.51165 | 39.68514 | 36069 ft | 394 kts | 221° |
| 2026-04-20 17:14 | 43.49269 | 39.65816 | 36048 ft | 390 kts | 236° |
| 2026-04-20 17:14 | 43.47971 | 39.62541 | 36043 ft | 389 kts | 251° |
| 2026-04-20 17:15 | 43.47368 | 39.58918 | 36056 ft | 389 kts | 266° |
| 2026-04-20 17:15 | 43.47510 | 39.55258 | 36052 ft | 390 kts | 281° |
| 2026-04-20 17:15 | 43.48408 | 39.51738 | 36044 ft | 393 kts | 297° |
| 2026-04-20 17:15 | 43.50009 | 39.48685 | 36069 ft | 396 kts | 313° |
| 2026-04-20 17:16 | 43.52204 | 39.46356 | 36055 ft | 402 kts | 329° |
| 2026-04-20 17:16 | 43.54822 | 39.44928 | 36072 ft | 407 kts | 344° |
| 2026-04-20 17:16 | 43.57645 | 39.44513 | 36054 ft | 413 kts | 1° |
| 2026-04-20 17:17 | 43.63393 | 39.45347 | 36068 ft | 416 kts | 4° |
| 2026-04-20 17:17 | 43.69134 | 39.46298 | 36058 ft | 418 kts | 3° |
| 2026-04-20 17:18 | 43.74942 | 39.47165 | 36051 ft | 420 kts | 6° |
| 2026-04-20 17:18 | 43.77739 | 39.48391 | 36044 ft | 426 kts | 28° |
| 2026-04-20 17:18 | 43.80075 | 39.50827 | 36055 ft | 429 kts | 46° |
| 2026-04-20 17:18 | 43.81815 | 39.54197 | 36062 ft | 431 kts | 64° |
| 2026-04-20 17:19 | 43.82753 | 39.58132 | 36056 ft | 431 kts | 83° |
| 2026-04-20 17:19 | 43.82777 | 39.62258 | 36071 ft | 428 kts | 102° |
| 2026-04-20 17:19 | 43.81893 | 39.66162 | 36062 ft | 424 kts | 120° |
| 2026-04-20 17:19 | 43.80230 | 39.69431 | 36065 ft | 419 kts | 138° |
| 2026-04-20 17:20 | 43.77938 | 39.71855 | 36062 ft | 412 kts | 156° |
| 2026-04-20 17:20 | 43.75284 | 39.73259 | 36078 ft | 406 kts | 171° |
| 2026-04-20 17:20 | 43.72503 | 39.73643 | 36051 ft | 400 kts | 186° |
| 2026-04-20 17:21 | 43.66968 | 39.72813 | 36064 ft | 400 kts | 190° |
| 2026-04-20 17:21 | 43.61416 | 39.71870 | 36047 ft | 403 kts | 189° |
| 2026-04-20 17:22 | 43.55834 | 39.71026 | 36044 ft | 403 kts | 189° |
| 2026-04-20 17:22 | 43.53137 | 39.70137 | 36033 ft | 397 kts | 208° |
| 2026-04-20 17:22 | 43.50859 | 39.68148 | 36057 ft | 391 kts | 224° |
| 2026-04-20 17:22 | 43.49071 | 39.65359 | 36065 ft | 388 kts | 238° |
| 2026-04-20 17:23 | 43.47890 | 39.62037 | 36045 ft | 386 kts | 253° |
| 2026-04-20 17:23 | 43.47411 | 39.58401 | 36052 ft | 386 kts | 268° |
| 2026-04-20 17:23 | 43.47687 | 39.54726 | 36042 ft | 388 kts | 284° |
| 2026-04-20 17:23 | 43.48700 | 39.51325 | 36043 ft | 390 kts | 300° |
| 2026-04-20 17:24 | 43.50406 | 39.48395 | 36062 ft | 394 kts | 316° |
| 2026-04-20 17:24 | 43.52677 | 39.46237 | 36061 ft | 400 kts | 332° |
| 2026-04-20 17:24 | 43.55327 | 39.44979 | 36070 ft | 405 kts | 347° |
| 2026-04-20 17:24 | 43.58130 | 39.44762 | 36070 ft | 410 kts | 2° |
| 2026-04-20 17:25 | 43.60984 | 39.45153 | 36062 ft | 413 kts | 4° |
| 2026-04-20 17:25 | 43.66715 | 39.46128 | 36065 ft | 416 kts | 4° |
| 2026-04-20 17:26 | 43.72481 | 39.47005 | 36058 ft | 417 kts | 3° |
| 2026-04-20 17:26 | 43.78074 | 39.48927 | 36061 ft | 425 kts | 31° |
| 2026-04-20 17:26 | 43.80335 | 39.51573 | 36052 ft | 429 kts | 50° |
| 2026-04-20 17:27 | 43.81926 | 39.55072 | 36070 ft | 430 kts | 68° |
| 2026-04-20 17:27 | 43.82688 | 39.59078 | 36052 ft | 430 kts | 86° |
| 2026-04-20 17:27 | 43.82518 | 39.63193 | 36073 ft | 427 kts | 105° |
| 2026-04-20 17:27 | 43.81450 | 39.66994 | 36070 ft | 423 kts | 124° |
| 2026-04-20 17:28 | 43.79633 | 39.70089 | 36061 ft | 417 kts | 142° |
| 2026-04-20 17:28 | 43.77234 | 39.72275 | 36062 ft | 410 kts | 160° |
| 2026-04-20 17:28 | 43.74529 | 39.73452 | 36061 ft | 405 kts | 174° |
| 2026-04-20 17:28 | 43.71744 | 39.73570 | 36081 ft | 399 kts | 188° |
| 2026-04-20 17:29 | 43.68979 | 39.73156 | 36048 ft | 402 kts | 190° |
| 2026-04-20 17:29 | 43.63389 | 39.71987 | 36067 ft | 411 kts | 192° |
| 2026-04-20 17:30 | 43.57700 | 39.70716 | 36062 ft | 421 kts | 192° |
| 2026-04-20 17:30 | 43.51846 | 39.69443 | 36063 ft | 430 kts | 191° |
| 2026-04-20 17:31 | 43.45868 | 39.68170 | 36055 ft | 438 kts | 191° |
| 2026-04-20 17:31 | 43.39814 | 39.66890 | 36055 ft | 446 kts | 191° |
| 2026-04-20 17:32 | 43.33639 | 39.65588 | 36051 ft | 451 kts | 191° |
| 2026-04-20 17:32 | 43.27414 | 39.64277 | 36054 ft | 453 kts | 191° |
| 2026-04-20 17:33 | 43.21207 | 39.62972 | 36053 ft | 453 kts | 191° |
| 2026-04-20 17:33 | 43.14965 | 39.61662 | 36050 ft | 452 kts | 191° |
| 2026-04-20 17:34 | 43.08750 | 39.60359 | 36058 ft | 450 kts | 191° |
| 2026-04-20 17:34 | 43.02602 | 39.59022 | 36068 ft | 448 kts | 191° |
| 2026-04-20 17:35 | 42.96438 | 39.57625 | 36062 ft | 447 kts | 192° |
| 2026-04-20 17:35 | 42.90310 | 39.56243 | 36074 ft | 445 kts | 191° |
| 2026-04-20 17:36 | 42.84196 | 39.54876 | 36073 ft | 445 kts | 191° |
| 2026-04-20 17:36 | 42.78112 | 39.53521 | 36068 ft | 444 kts | 191° |
| 2026-04-20 17:37 | 42.72002 | 39.52162 | 36073 ft | 444 kts | 191° |
| 2026-04-20 17:37 | 42.65884 | 39.50803 | 36073 ft | 445 kts | 191° |
| 2026-04-20 17:38 | 42.59778 | 39.49449 | 36080 ft | 447 kts | 191° |
| 2026-04-20 17:38 | 42.53623 | 39.48082 | 35921 ft | 451 kts | 191° |
| 2026-04-20 17:38 | 42.50498 | 39.47387 | 35353 ft | 456 kts | 191° |
| 2026-04-20 17:39 | 42.47364 | 39.46693 | 34727 ft | 455 kts | 191° |
| 2026-04-20 17:39 | 42.44234 | 39.46001 | 34100 ft | 455 kts | 191° |
| 2026-04-20 17:39 | 42.41143 | 39.45317 | 33325 ft | 456 kts | 191° |
| 2026-04-20 17:39 | 42.38001 | 39.44624 | 32596 ft | 456 kts | 191° |
| 2026-04-20 17:40 | 42.34855 | 39.43929 | 31873 ft | 456 kts | 191° |
| 2026-04-20 17:40 | 42.31720 | 39.43238 | 31137 ft | 456 kts | 191° |
| 2026-04-20 17:40 | 42.28587 | 39.42548 | 30469 ft | 455 kts | 191° |
| 2026-04-20 17:40 | 42.25474 | 39.41863 | 29936 ft | 450 kts | 191° |
| 2026-04-20 17:41 | 42.22436 | 39.41196 | 29350 ft | 445 kts | 191° |
| 2026-04-20 17:41 | 42.19357 | 39.40770 | 28808 ft | 441 kts | 182° |
| 2026-04-20 17:41 | 42.16320 | 39.41000 | 28358 ft | 435 kts | 173° |
| 2026-04-20 17:41 | 42.13374 | 39.41841 | 27880 ft | 430 kts | 167° |
| 2026-04-20 17:42 | 42.10491 | 39.42848 | 27349 ft | 426 kts | 166° |
| 2026-04-20 17:42 | 42.07633 | 39.43856 | 26835 ft | 422 kts | 167° |
| 2026-04-20 17:42 | 42.04839 | 39.44829 | 26340 ft | 419 kts | 167° |
| 2026-04-20 17:42 | 42.02022 | 39.45792 | 25828 ft | 415 kts | 167° |
| 2026-04-20 17:43 | 41.99229 | 39.46734 | 25333 ft | 412 kts | 167° |
| 2026-04-20 17:43 | 41.96452 | 39.47664 | 24844 ft | 409 kts | 167° |
| 2026-04-20 17:43 | 41.93699 | 39.48582 | 24352 ft | 407 kts | 167° |
| 2026-04-20 17:43 | 41.90961 | 39.49495 | 23867 ft | 404 kts | 167° |
| 2026-04-20 17:44 | 41.89154 | 39.50097 | 23509 ft | 403 kts | 167° |
| 2026-04-20 17:44 | 41.86430 | 39.51005 | 22937 ft | 401 kts | 167° |
| 2026-04-20 17:44 | 41.82858 | 39.52193 | 22239 ft | 397 kts | 167° |
| 2026-04-20 17:44 | 41.80181 | 39.53078 | 21717 ft | 394 kts | 167° |
| 2026-04-20 17:45 | 41.78384 | 39.53672 | 21382 ft | 392 kts | 167° |
| 2026-04-20 17:45 | 41.75773 | 39.54534 | 20901 ft | 389 kts | 167° |
| 2026-04-20 17:45 | 41.73144 | 39.55402 | 20412 ft | 386 kts | 167° |
| 2026-04-20 17:45 | 41.70545 | 39.56259 | 19949 ft | 383 kts | 167° |
| 2026-04-20 17:46 | 41.67964 | 39.57109 | 19477 ft | 381 kts | 167° |
| 2026-04-20 17:46 | 41.65397 | 39.57955 | 19013 ft | 378 kts | 167° |
| 2026-04-20 17:46 | 41.62848 | 39.58796 | 18547 ft | 376 kts | 167° |
| 2026-04-20 17:46 | 41.60336 | 39.59630 | 18047 ft | 375 kts | 167° |
| 2026-04-20 17:47 | 41.57809 | 39.60471 | 17538 ft | 373 kts | 167° |
| 2026-04-20 17:47 | 41.55287 | 39.61310 | 17053 ft | 370 kts | 167° |
| 2026-04-20 17:47 | 41.52796 | 39.62137 | 16576 ft | 367 kts | 167° |
| 2026-04-20 17:47 | 41.50318 | 39.62958 | 16120 ft | 365 kts | 167° |
| 2026-04-20 17:48 | 41.47883 | 39.63864 | 15659 ft | 362 kts | 161° |
| 2026-04-20 17:48 | 41.45580 | 39.65107 | 15223 ft | 360 kts | 156° |
| 2026-04-20 17:48 | 41.43302 | 39.66494 | 14772 ft | 358 kts | 155° |
| 2026-04-20 17:48 | 41.41041 | 39.67899 | 14325 ft | 356 kts | 155° |
| 2026-04-20 17:49 | 41.38791 | 39.69281 | 13877 ft | 355 kts | 156° |
| 2026-04-20 17:49 | 41.36544 | 39.70636 | 13378 ft | 353 kts | 156° |
| 2026-04-20 17:49 | 41.34330 | 39.71953 | 12914 ft | 351 kts | 156° |
| 2026-04-20 17:49 | 41.32102 | 39.73266 | 12461 ft | 349 kts | 156° |
| 2026-04-20 17:50 | 41.29889 | 39.74563 | 12020 ft | 346 kts | 155° |
| 2026-04-20 17:50 | 41.27692 | 39.75846 | 11589 ft | 343 kts | 155° |
| 2026-04-20 17:50 | 41.25508 | 39.77120 | 11158 ft | 340 kts | 155° |
| 2026-04-20 17:50 | 41.23377 | 39.78362 | 10884 ft | 334 kts | 155° |
| 2026-04-20 17:51 | 41.21277 | 39.79585 | 10687 ft | 324 kts | 155° |
| 2026-04-20 17:51 | 41.19238 | 39.80772 | 10540 ft | 314 kts | 155° |
| 2026-04-20 17:51 | 41.17265 | 39.81920 | 10402 ft | 305 kts | 155° |
| 2026-04-20 17:51 | 41.15345 | 39.83035 | 10273 ft | 296 kts | 155° |
| 2026-04-20 17:52 | 41.13486 | 39.84114 | 10151 ft | 287 kts | 155° |
| 2026-04-20 17:52 | 41.11701 | 39.85227 | 10022 ft | 278 kts | 146° |
| 2026-04-20 17:52 | 41.10391 | 39.87035 | 9754 ft | 272 kts | 120° |
| 2026-04-20 17:52 | 41.09616 | 39.89313 | 9439 ft | 270 kts | 110° |
| 2026-04-20 17:53 | 41.08973 | 39.91625 | 9094 ft | 271 kts | 109° |
| 2026-04-20 17:53 | 41.08327 | 39.93974 | 8759 ft | 271 kts | 110° |
| 2026-04-20 17:53 | 41.07674 | 39.96311 | 8420 ft | 271 kts | 110° |
| 2026-04-20 17:53 | 41.07009 | 39.98649 | 8079 ft | 271 kts | 110° |
| 2026-04-20 17:54 | 41.06341 | 40.00982 | 7739 ft | 271 kts | 110° |
| 2026-04-20 17:54 | 41.05669 | 40.03319 | 7432 ft | 271 kts | 110° |
| 2026-04-20 17:54 | 41.05003 | 40.05635 | 7114 ft | 267 kts | 111° |
| 2026-04-20 17:54 | 41.04355 | 40.07883 | 6781 ft | 260 kts | 111° |
| 2026-04-20 17:55 | 41.03715 | 40.10097 | 6463 ft | 252 kts | 111° |
| 2026-04-20 17:55 | 41.02778 | 40.11987 | 6084 ft | 244 kts | 140° |
| 2026-04-20 17:55 | 41.01296 | 40.12951 | 5810 ft | 234 kts | 167° |
| 2026-04-20 17:55 | 40.99712 | 40.13047 | 5540 ft | 225 kts | 188° |
| 2026-04-20 17:56 | 40.98211 | 40.12656 | 5304 ft | 216 kts | 192° |
| 2026-04-20 17:56 | 40.96773 | 40.12220 | 5066 ft | 208 kts | 193° |
| 2026-04-20 17:56 | 40.95404 | 40.11806 | 4843 ft | 201 kts | 193° |
| 2026-04-20 17:56 | 40.94049 | 40.11403 | 4640 ft | 199 kts | 192° |
| 2026-04-20 17:57 | 40.92714 | 40.10899 | 4411 ft | 201 kts | 208° |
| 2026-04-20 17:57 | 40.91789 | 40.09577 | 4261 ft | 196 kts | 249° |
| 2026-04-20 17:57 | 40.91677 | 40.07818 | 4173 ft | 194 kts | 281° |
| 2026-04-20 17:57 | 40.91971 | 40.06056 | 4082 ft | 199 kts | 283° |
| 2026-04-20 17:58 | 40.92272 | 40.04258 | 3967 ft | 201 kts | 283° |
| 2026-04-20 17:58 | 40.92573 | 40.02463 | 3849 ft | 198 kts | 283° |
| 2026-04-20 17:58 | 40.92864 | 40.00746 | 3726 ft | 186 kts | 284° |
| 2026-04-20 17:58 | 40.93267 | 39.99166 | 3562 ft | 183 kts | 291° |
| 2026-04-20 17:59 | 40.93736 | 39.97600 | 3259 ft | 181 kts | 292° |
| 2026-04-20 17:59 | 40.94199 | 39.96088 | 2966 ft | 173 kts | 292° |
| 2026-04-20 17:59 | 40.94645 | 39.94654 | 2695 ft | 164 kts | 293° |
| 2026-04-20 17:59 | 40.95080 | 39.93301 | 2507 ft | 158 kts | 292° |
| 2026-04-20 18:00 | 40.95505 | 39.91943 | 2215 ft | 159 kts | 292° |
| 2026-04-20 18:00 | 40.95920 | 39.90598 | 1965 ft | 156 kts | 292° |
| 2026-04-20 18:00 | 40.96325 | 39.89284 | 1738 ft | 153 kts | 292° |
| 2026-04-20 18:00 | 40.96723 | 39.87991 | 1506 ft | 154 kts | 292° |
| 2026-04-20 18:01 | 40.97130 | 39.86672 | 1270 ft | 155 kts | 292° |
| 2026-04-20 18:01 | 40.97538 | 39.85352 | 1011 ft | 155 kts | 292° |
| 2026-04-20 18:01 | 40.97955 | 39.84032 | 737 ft | 156 kts | 292° |
| 2026-04-20 18:01 | 40.98369 | 39.82712 | 557 ft | 154 kts | 291° |
| 2026-04-20 18:02 | 40.98763 | 39.81385 | 287 ft | 155 kts | 292° |
| 2026-04-20 18:02 | 40.99161 | 39.80093 | 105 ft | 148 kts | 292° |
| 2026-04-20 18:02 | 40.99488 | 39.79033 | 101 ft | 94 kts | 292° |
| 2026-04-20 18:02 | 40.99658 | 39.78491 | 108 ft | 33 kts | 292° |
| 2026-04-20 18:03 | 40.99690 | 39.78310 | 107 ft | 19 kts | 274° |
| 2026-04-20 18:03 | 40.99691 | 39.78168 | 109 ft | 1 kts | 235° |
| 2026-04-20 18:04 | 40.99686 | 39.78162 | 108 ft | 3 kts | 225° |
| 2026-04-20 18:04 | 40.99664 | 39.78142 | 112 ft | 4 kts | 210° |
| 2026-04-20 18:04 | 40.99633 | 39.78129 | 111 ft | 4 kts | 160° |
| 2026-04-20 18:04 | 40.99614 | 39.78163 | 113 ft | 5 kts | 119° |
| 2026-04-20 18:05 | 40.99577 | 39.78276 | 114 ft | 7 kts | 111° |
| 2026-04-20 18:05 | 40.99556 | 39.78343 | 111 ft | 9 kts | 112° |
| 2026-04-20 18:05 | 40.99505 | 39.78383 | 113 ft | 9 kts | 192° |
| 2026-04-20 18:06 | 40.99483 | 39.78373 | 114 ft | 1 kts | 200° |
| 2026-04-20 18:06 | 40.99475 | 39.78369 | 114 ft | 0 kts | 201° |